sensor_id;sensor_type;location;lat;lon;timestamp;pressure;altitude;pressure_sealevel;temperature;humidity
13974;BME280;7060;43.770;4.008;2023-03-23T00:01:52;101120.28;;;12.34;76.34
13974;BME280;7060;43.770;4.008;2023-03-23T00:04:21;101070.41;;;12.04;76.85
13974;BME280;7060;43.770;4.008;2023-03-23T00:06:48;101113.66;;;12.28;76.87
13974;BME280;7060;43.770;4.008;2023-03-23T00:09:16;101118.31;;;12.26;77.31
13974;BME280;7060;43.770;4.008;2023-03-23T00:11:51;101119.16;;;12.27;77.31
13974;BME280;7060;43.770;4.008;2023-03-23T00:14:23;101120.84;;;12.28;77.44
13974;BME280;7060;43.770;4.008;2023-03-23T00:16:50;101120.56;;;12.31;77.69
13974;BME280;7060;43.770;4.008;2023-03-23T00:19:21;101127.31;;;12.35;77.46
13974;BME280;7060;43.770;4.008;2023-03-23T00:21:48;101123.94;;;12.33;77.38
13974;BME280;7060;43.770;4.008;2023-03-23T00:24:20;101118.88;;;12.30;77.46
13974;BME280;7060;43.770;4.008;2023-03-23T00:26:48;101112.38;;;12.32;77.39
13974;BME280;7060;43.770;4.008;2023-03-23T00:29:19;101114.75;;;12.35;77.71
13974;BME280;7060;43.770;4.008;2023-03-23T00:31:51;101116.59;;;12.35;77.13
13974;BME280;7060;43.770;4.008;2023-03-23T00:34:22;101112.94;;;12.36;77.33
13974;BME280;7060;43.770;4.008;2023-03-23T00:36:52;101064.78;;;12.07;77.63
13974;BME280;7060;43.770;4.008;2023-03-23T00:39:23;101120.13;;;12.35;77.17
13974;BME280;7060;43.770;4.008;2023-03-23T00:41:51;101113.91;;;12.35;77.44
13974;BME280;7060;43.770;4.008;2023-03-23T00:44:20;101109.56;;;12.34;77.45
13974;BME280;7060;43.770;4.008;2023-03-23T00:46:49;101111.53;;;12.32;77.19
13974;BME280;7060;43.770;4.008;2023-03-23T00:49:21;101111.09;;;12.36;77.24
13974;BME280;7060;43.770;4.008;2023-03-23T00:51:51;101038.59;;;11.91;77.22
13974;BME280;7060;43.770;4.008;2023-03-23T00:54:19;101078.00;;;12.18;77.03
13974;BME280;7060;43.770;4.008;2023-03-23T00:56:50;101099.22;;;12.39;76.70
13974;BME280;7060;43.770;4.008;2023-03-23T00:59:18;101100.91;;;12.40;76.53
13974;BME280;7060;43.770;4.008;2023-03-23T01:01:47;101071.16;;;12.33;76.92
13974;BME280;7060;43.770;4.008;2023-03-23T01:04:15;101084.06;;;12.47;76.77
13974;BME280;7060;43.770;4.008;2023-03-23T01:06:44;101083.06;;;12.48;76.39
13974;BME280;7060;43.770;4.008;2023-03-23T01:09:18;101051.44;;;12.25;76.28
13974;BME280;7060;43.770;4.008;2023-03-23T01:11:48;101051.16;;;12.28;76.19
13974;BME280;7060;43.770;4.008;2023-03-23T01:14:18;101023.41;;;12.19;76.38
13974;BME280;7060;43.770;4.008;2023-03-23T01:16:49;101069.09;;;12.45;76.39
13974;BME280;7060;43.770;4.008;2023-03-23T01:19:16;101068.41;;;12.43;76.29
13974;BME280;7060;43.770;4.008;2023-03-23T01:21:45;101059.66;;;12.41;76.49
13974;BME280;7060;43.770;4.008;2023-03-23T01:24:13;101055.09;;;12.33;76.55
13974;BME280;7060;43.770;4.008;2023-03-23T01:26:40;101050.16;;;12.29;76.56
13974;BME280;7060;43.770;4.008;2023-03-23T01:29:08;101054.81;;;12.27;76.69
13974;BME280;7060;43.770;4.008;2023-03-23T01:31:35;101044.09;;;12.27;77.21
13974;BME280;7060;43.770;4.008;2023-03-23T01:34:06;101036.34;;;12.24;77.22
13974;BME280;7060;43.770;4.008;2023-03-23T01:36:36;101038.34;;;12.21;77.30
13974;BME280;7060;43.770;4.008;2023-03-23T01:39:05;101031.00;;;12.14;77.33
13974;BME280;7060;43.770;4.008;2023-03-23T01:41:35;101042.03;;;12.11;77.89
13974;BME280;7060;43.770;4.008;2023-03-23T01:44:07;101047.25;;;12.12;77.74
13974;BME280;7060;43.770;4.008;2023-03-23T01:46:46;101039.88;;;12.14;77.65
13974;BME280;7060;43.770;4.008;2023-03-23T01:49:17;101048.38;;;12.19;77.87
13974;BME280;7060;43.770;4.008;2023-03-23T01:51:49;101040.03;;;12.23;77.75
13974;BME280;7060;43.770;4.008;2023-03-23T01:54:21;101014.00;;;12.05;77.49
13974;BME280;7060;43.770;4.008;2023-03-23T01:56:54;101032.28;;;12.19;77.43
13974;BME280;7060;43.770;4.008;2023-03-23T01:59:23;101029.16;;;12.14;78.03
13974;BME280;7060;43.770;4.008;2023-03-23T02:02:12;101034.84;;;12.11;78.33
13974;BME280;7060;43.770;4.008;2023-03-23T02:04:40;101034.66;;;12.13;78.49
13974;BME280;7060;43.770;4.008;2023-03-23T02:07:08;101034.53;;;12.14;78.19
13974;BME280;7060;43.770;4.008;2023-03-23T02:09:38;101026.22;;;12.17;78.00
13974;BME280;7060;43.770;4.008;2023-03-23T02:12:06;101034.25;;;12.17;77.88
13974;BME280;7060;43.770;4.008;2023-03-23T02:14:36;101028.31;;;12.14;78.37
13974;BME280;7060;43.770;4.008;2023-03-23T02:17:07;100987.13;;;11.87;78.70
13974;BME280;7060;43.770;4.008;2023-03-23T02:19:52;101019.91;;;12.09;78.45
13974;BME280;7060;43.770;4.008;2023-03-23T02:25:40;101029.63;;;12.10;78.41
13974;BME280;7060;43.770;4.008;2023-03-23T02:28:26;101022.72;;;12.07;78.11
13974;BME280;7060;43.770;4.008;2023-03-23T02:31:10;101011.63;;;12.02;78.23
13974;BME280;7060;43.770;4.008;2023-03-23T02:33:50;101017.13;;;12.01;78.69
13974;BME280;7060;43.770;4.008;2023-03-23T02:36:23;100977.88;;;11.82;78.77
13974;BME280;7060;43.770;4.008;2023-03-23T02:39:02;101016.53;;;12.07;78.16
13974;BME280;7060;43.770;4.008;2023-03-23T02:41:36;101020.75;;;12.09;77.93
13974;BME280;7060;43.770;4.008;2023-03-23T02:44:10;101013.41;;;12.11;78.45
13974;BME280;7060;43.770;4.008;2023-03-23T02:46:40;101013.09;;;12.14;77.99
13974;BME280;7060;43.770;4.008;2023-03-23T02:49:12;101011.84;;;12.18;77.66
13974;BME280;7060;43.770;4.008;2023-03-23T02:51:44;101014.50;;;12.18;77.49
13974;BME280;7060;43.770;4.008;2023-03-23T02:54:15;101006.63;;;12.17;77.46
13974;BME280;7060;43.770;4.008;2023-03-23T02:56:44;101017.19;;;12.18;77.67
13974;BME280;7060;43.770;4.008;2023-03-23T02:59:21;101019.44;;;12.13;77.37
13974;BME280;7060;43.770;4.008;2023-03-23T03:01:56;101020.47;;;12.12;77.40
13974;BME280;7060;43.770;4.008;2023-03-23T03:04:28;101010.72;;;12.11;77.54
13974;BME280;7060;43.770;4.008;2023-03-23T03:07:09;100994.13;;;11.98;77.89
13974;BME280;7060;43.770;4.008;2023-03-23T03:09:47;101017.78;;;12.12;78.21
13974;BME280;7060;43.770;4.008;2023-03-23T03:12:23;101020.72;;;12.19;77.56
13974;BME280;7060;43.770;4.008;2023-03-23T03:14:58;101012.25;;;12.14;77.22
13974;BME280;7060;43.770;4.008;2023-03-23T03:17:29;101010.03;;;12.09;77.53
13974;BME280;7060;43.770;4.008;2023-03-23T03:20:02;100986.41;;;11.95;77.39
13974;BME280;7060;43.770;4.008;2023-03-23T03:22:39;100997.47;;;12.10;77.60
13974;BME280;7060;43.770;4.008;2023-03-23T03:25:10;101002.84;;;12.10;77.63
13974;BME280;7060;43.770;4.008;2023-03-23T03:27:43;100998.31;;;12.10;77.42
13974;BME280;7060;43.770;4.008;2023-03-23T03:30:24;101007.34;;;12.09;77.39
13974;BME280;7060;43.770;4.008;2023-03-23T03:32:53;101011.03;;;12.08;77.59
13974;BME280;7060;43.770;4.008;2023-03-23T03:35:25;101018.22;;;12.08;77.31
13974;BME280;7060;43.770;4.008;2023-03-23T03:37:55;101022.03;;;12.05;77.29
13974;BME280;7060;43.770;4.008;2023-03-23T03:40:23;101026.69;;;12.03;77.55
13974;BME280;7060;43.770;4.008;2023-03-23T03:42:50;101010.06;;;12.00;77.51
13974;BME280;7060;43.770;4.008;2023-03-23T03:45:19;100995.97;;;11.98;77.58
13974;BME280;7060;43.770;4.008;2023-03-23T03:47:49;101000.19;;;12.00;77.90
13974;BME280;7060;43.770;4.008;2023-03-23T03:50:16;100998.06;;;12.04;77.57
13974;BME280;7060;43.770;4.008;2023-03-23T03:52:45;100998.06;;;12.04;77.42
13974;BME280;7060;43.770;4.008;2023-03-23T03:55:13;100993.56;;;12.04;77.34
13974;BME280;7060;43.770;4.008;2023-03-23T03:57:45;100987.19;;;12.05;76.98
13974;BME280;7060;43.770;4.008;2023-03-23T04:00:32;100994.41;;;12.05;77.35
13974;BME280;7060;43.770;4.008;2023-03-23T04:03:00;101001.59;;;12.04;77.08
13974;BME280;7060;43.770;4.008;2023-03-23T04:05:41;101000.75;;;12.04;77.01
13974;BME280;7060;43.770;4.008;2023-03-23T04:08:12;101002.59;;;12.03;77.17
13974;BME280;7060;43.770;4.008;2023-03-23T04:10:39;101002.88;;;12.00;76.94
13974;BME280;7060;43.770;4.008;2023-03-23T04:13:08;101006.41;;;12.01;77.45
13974;BME280;7060;43.770;4.008;2023-03-23T04:15:54;100996.66;;;12.00;77.06
13974;BME280;7060;43.770;4.008;2023-03-23T04:18:22;101004.56;;;12.01;77.08
13974;BME280;7060;43.770;4.008;2023-03-23T04:20:51;101001.88;;;12.01;77.31
13974;BME280;7060;43.770;4.008;2023-03-23T04:23:22;100956.63;;;11.71;77.30
13974;BME280;7060;43.770;4.008;2023-03-23T04:25:52;100942.75;;;11.58;76.95
13974;BME280;7060;43.770;4.008;2023-03-23T04:28:29;101000.50;;;11.97;77.22
13974;BME280;7060;43.770;4.008;2023-03-23T04:31:19;101001.78;;;11.93;77.26
13974;BME280;7060;43.770;4.008;2023-03-23T04:33:52;101008.25;;;11.91;77.66
13974;BME280;7060;43.770;4.008;2023-03-23T04:36:22;101023.22;;;11.93;77.55
13974;BME280;7060;43.770;4.008;2023-03-23T04:38:59;101016.84;;;11.94;77.23
13974;BME280;7060;43.770;4.008;2023-03-23T04:41:29;101014.19;;;11.94;77.48
13974;BME280;7060;43.770;4.008;2023-03-23T04:44:19;101020.13;;;11.88;77.73
13974;BME280;7060;43.770;4.008;2023-03-23T04:47:11;101017.59;;;11.86;77.43
13974;BME280;7060;43.770;4.008;2023-03-23T04:49:47;101027.16;;;11.89;77.44
13974;BME280;7060;43.770;4.008;2023-03-23T04:52:31;101029.56;;;11.92;77.38
13974;BME280;7060;43.770;4.008;2023-03-23T04:55:06;101028.13;;;11.98;77.26
13974;BME280;7060;43.770;4.008;2023-03-23T04:57:36;101035.03;;;12.00;77.54
13974;BME280;7060;43.770;4.008;2023-03-23T05:00:24;101039.69;;;11.98;77.21
13974;BME280;7060;43.770;4.008;2023-03-23T05:02:54;101038.69;;;11.99;77.22
13974;BME280;7060;43.770;4.008;2023-03-23T05:05:26;101036.16;;;11.98;77.05
13974;BME280;7060;43.770;4.008;2023-03-23T05:07:59;101029.97;;;11.97;77.00
13974;BME280;7060;43.770;4.008;2023-03-23T05:10:33;101027.00;;;12.00;77.35
13974;BME280;7060;43.770;4.008;2023-03-23T05:13:07;101037.41;;;12.03;77.25
13974;BME280;7060;43.770;4.008;2023-03-23T05:15:34;101032.06;;;12.03;76.97
13974;BME280;7060;43.770;4.008;2023-03-23T05:18:03;101028.09;;;12.07;77.20
13974;BME280;7060;43.770;4.008;2023-03-23T05:20:32;101025.56;;;12.06;76.59
13974;BME280;7060;43.770;4.008;2023-03-23T05:23:08;101005.72;;;11.89;77.05
13974;BME280;7060;43.770;4.008;2023-03-23T05:25:39;101041.50;;;12.07;76.51
13974;BME280;7060;43.770;4.008;2023-03-23T05:28:14;101041.19;;;12.10;76.73
13974;BME280;7060;43.770;4.008;2023-03-23T05:30:54;101054.91;;;12.07;76.77
13974;BME280;7060;43.770;4.008;2023-03-23T05:33:27;101059.25;;;12.08;76.85
13974;BME280;7060;43.770;4.008;2023-03-23T05:36:03;101061.47;;;12.13;76.36
13974;BME280;7060;43.770;4.008;2023-03-23T05:38:47;101042.91;;;12.11;76.64
13974;BME280;7060;43.770;4.008;2023-03-23T05:41:18;101041.06;;;12.12;76.25
13974;BME280;7060;43.770;4.008;2023-03-23T05:43:45;101047.25;;;12.12;76.27
13974;BME280;7060;43.770;4.008;2023-03-23T05:46:30;101045.72;;;12.10;76.33
13974;BME280;7060;43.770;4.008;2023-03-23T05:48:59;101043.88;;;12.10;76.79
13974;BME280;7060;43.770;4.008;2023-03-23T05:51:33;101032.16;;;12.11;76.28
13974;BME280;7060;43.770;4.008;2023-03-23T05:54:01;101033.00;;;12.12;76.14
13974;BME280;7060;43.770;4.008;2023-03-23T05:56:31;101028.66;;;12.11;76.37
13974;BME280;7060;43.770;4.008;2023-03-23T05:59:09;101032.16;;;12.11;76.66
13974;BME280;7060;43.770;4.008;2023-03-23T06:01:38;101031.00;;;12.14;76.52
13974;BME280;7060;43.770;4.008;2023-03-23T06:04:06;101042.44;;;12.16;76.57
13974;BME280;7060;43.770;4.008;2023-03-23T06:06:49;101060.91;;;12.19;76.55
13974;BME280;7060;43.770;4.008;2023-03-23T06:09:17;101053.44;;;12.23;76.24
13974;BME280;7060;43.770;4.008;2023-03-23T06:12:05;101051.03;;;12.19;76.43
13974;BME280;7060;43.770;4.008;2023-03-23T06:15:07;101044.41;;;12.14;76.62
13974;BME280;7060;43.770;4.008;2023-03-23T06:17:53;101035.50;;;12.13;76.69
13974;BME280;7060;43.770;4.008;2023-03-23T06:20:28;101027.22;;;12.16;76.62
13974;BME280;7060;43.770;4.008;2023-03-23T06:22:58;101021.84;;;12.16;76.23
13974;BME280;7060;43.770;4.008;2023-03-23T06:25:31;101022.56;;;12.18;76.19
13974;BME280;7060;43.770;4.008;2023-03-23T06:28:00;101020.72;;;12.19;76.75
13974;BME280;7060;43.770;4.008;2023-03-23T06:30:28;101028.59;;;12.20;76.32
13974;BME280;7060;43.770;4.008;2023-03-23T06:32:57;101046.22;;;12.23;76.46
13974;BME280;7060;43.770;4.008;2023-03-23T06:35:50;101045.25;;;12.14;76.30
13974;BME280;7060;43.770;4.008;2023-03-23T06:38:41;101046.72;;;12.09;77.15
13974;BME280;7060;43.770;4.008;2023-03-23T06:41:08;101044.88;;;12.09;77.13
13974;BME280;7060;43.770;4.008;2023-03-23T06:43:37;101041.34;;;12.09;77.13
13974;BME280;7060;43.770;4.008;2023-03-23T06:46:13;101037.97;;;12.07;77.21
13974;BME280;7060;43.770;4.008;2023-03-23T06:48:41;101046.41;;;12.12;76.87
13974;BME280;7060;43.770;4.008;2023-03-23T06:51:13;101033.56;;;12.15;76.94
13974;BME280;7060;43.770;4.008;2023-03-23T06:53:46;101019.72;;;12.20;77.10
13974;BME280;7060;43.770;4.008;2023-03-23T06:56:13;101019.28;;;12.25;76.54
13974;BME280;7060;43.770;4.008;2023-03-23T06:58:43;101021.25;;;12.23;76.90
13974;BME280;7060;43.770;4.008;2023-03-23T07:01:12;101024.66;;;12.25;76.81
13974;BME280;7060;43.770;4.008;2023-03-23T07:03:49;101022.94;;;12.24;76.41
13974;BME280;7060;43.770;4.008;2023-03-23T07:06:23;101036.22;;;12.25;76.65
13974;BME280;7060;43.770;4.008;2023-03-23T07:08:56;101040.19;;;12.21;76.61
13974;BME280;7060;43.770;4.008;2023-03-23T07:11:27;101056.41;;;12.19;77.10
13974;BME280;7060;43.770;4.008;2023-03-23T07:13:58;101065.69;;;12.25;76.61
13974;BME280;7060;43.770;4.008;2023-03-23T07:16:26;101068.22;;;12.27;76.86
13974;BME280;7060;43.770;4.008;2023-03-23T07:18:53;101068.94;;;12.29;76.59
13974;BME280;7060;43.770;4.008;2023-03-23T07:21:20;101067.25;;;12.28;77.06
13974;BME280;7060;43.770;4.008;2023-03-23T07:23:48;101074.28;;;12.29;76.70
13974;BME280;7060;43.770;4.008;2023-03-23T07:26:23;101088.53;;;12.29;76.90
13974;BME280;7060;43.770;4.008;2023-03-23T07:28:54;101101.34;;;12.35;76.36
13974;BME280;7060;43.770;4.008;2023-03-23T07:31:34;101093.47;;;12.34;76.56
13974;BME280;7060;43.770;4.008;2023-03-23T07:34:03;101102.50;;;12.33;76.67
13974;BME280;7060;43.770;4.008;2023-03-23T07:36:46;101104.47;;;12.31;76.63
13974;BME280;7060;43.770;4.008;2023-03-23T07:39:14;101097.97;;;12.33;76.70
13974;BME280;7060;43.770;4.008;2023-03-23T07:41:43;101094.72;;;12.39;76.56
13974;BME280;7060;43.770;4.008;2023-03-23T07:44:30;101100.22;;;12.38;77.00
13974;BME280;7060;43.770;4.008;2023-03-23T07:47:04;101109.09;;;12.38;76.86
13974;BME280;7060;43.770;4.008;2023-03-23T07:49:32;101093.19;;;12.27;76.55
13974;BME280;7060;43.770;4.008;2023-03-23T07:52:12;101098.53;;;12.37;76.60
13974;BME280;7060;43.770;4.008;2023-03-23T07:54:39;101101.34;;;12.35;76.92
13974;BME280;7060;43.770;4.008;2023-03-23T07:57:33;101104.19;;;12.34;77.49
13974;BME280;7060;43.770;4.008;2023-03-23T08:00:03;101094.84;;;12.38;77.65
13974;BME280;7060;43.770;4.008;2023-03-23T08:02:47;101107.28;;;12.39;77.41
13974;BME280;7060;43.770;4.008;2023-03-23T08:05:32;101106.28;;;12.40;77.21
13974;BME280;7060;43.770;4.008;2023-03-23T08:08:35;101106.94;;;12.42;77.46
13974;BME280;7060;43.770;4.008;2023-03-23T08:11:22;101093.88;;;12.39;77.38
13974;BME280;7060;43.770;4.008;2023-03-23T08:14:11;101109.44;;;12.53;77.08
13974;BME280;7060;43.770;4.008;2023-03-23T08:16:58;101108.16;;;12.57;76.96
13974;BME280;7060;43.770;4.008;2023-03-23T08:19:45;101099.25;;;12.57;77.05
13974;BME280;7060;43.770;4.008;2023-03-23T08:22:28;101106.31;;;12.58;77.09
13974;BME280;7060;43.770;4.008;2023-03-23T08:25:13;101105.88;;;12.62;76.78
13974;BME280;7060;43.770;4.008;2023-03-23T08:28:18;101108.84;;;12.59;77.30
13974;BME280;7060;43.770;4.008;2023-03-23T08:31:06;101108.41;;;12.64;76.48
13974;BME280;7060;43.770;4.008;2023-03-23T08:33:46;101110.47;;;12.70;76.34
13974;BME280;7060;43.770;4.008;2023-03-23T08:36:50;101115.97;;;12.68;76.90
13974;BME280;7060;43.770;4.008;2023-03-23T08:39:51;101113.63;;;12.65;76.76
13974;BME280;7060;43.770;4.008;2023-03-23T08:42:37;101109.94;;;12.66;76.84
13974;BME280;7060;43.770;4.008;2023-03-23T08:45:31;101110.47;;;12.70;76.78
13974;BME280;7060;43.770;4.008;2023-03-23T08:48:17;101118.38;;;12.71;77.49
13974;BME280;7060;43.770;4.008;2023-03-23T08:51:03;101133.31;;;12.74;77.39
13974;BME280;7060;43.770;4.008;2023-03-23T08:54:04;101144.19;;;12.72;76.88
13974;BME280;7060;43.770;4.008;2023-03-23T08:56:51;101137.16;;;12.71;76.70
13974;BME280;7060;43.770;4.008;2023-03-23T08:59:29;101134.16;;;12.74;76.96
13974;BME280;7060;43.770;4.008;2023-03-23T09:02:16;101140.22;;;12.76;76.95
13974;BME280;7060;43.770;4.008;2023-03-23T09:04:55;101145.16;;;12.81;76.98
13974;BME280;7060;43.770;4.008;2023-03-23T09:07:39;101136.94;;;12.82;77.05
13974;BME280;7060;43.770;4.008;2023-03-23T09:10:11;101124.53;;;12.81;77.09
13974;BME280;7060;43.770;4.008;2023-03-23T09:12:39;101141.41;;;12.92;76.88
13974;BME280;7060;43.770;4.008;2023-03-23T09:15:13;101139.44;;;12.94;76.40
13974;BME280;7060;43.770;4.008;2023-03-23T09:17:42;101130.91;;;12.98;76.38
13974;BME280;7060;43.770;4.008;2023-03-23T09:20:14;101139.19;;;13.05;76.21
13974;BME280;7060;43.770;4.008;2023-03-23T09:22:47;101139.75;;;13.08;76.31
13974;BME280;7060;43.770;4.008;2023-03-23T09:25:18;101122.63;;;12.92;75.91
13974;BME280;7060;43.770;4.008;2023-03-23T09:27:49;101155.00;;;13.08;76.21
13974;BME280;7060;43.770;4.008;2023-03-23T09:30:19;101156.69;;;13.09;76.03
13974;BME280;7060;43.770;4.008;2023-03-23T09:32:47;101166.13;;;13.13;75.59
13974;BME280;7060;43.770;4.008;2023-03-23T09:35:15;101174.88;;;13.15;75.58
13974;BME280;7060;43.770;4.008;2023-03-23T09:37:44;101175.28;;;13.20;75.73
13974;BME280;7060;43.770;4.008;2023-03-23T09:40:14;101135.13;;;13.01;75.30
13974;BME280;7060;43.770;4.008;2023-03-23T09:43:00;101176.78;;;13.22;74.94
13974;BME280;7060;43.770;4.008;2023-03-23T09:45:35;101158.69;;;13.07;74.76
13974;BME280;7060;43.770;4.008;2023-03-23T09:48:25;101177.13;;;13.19;74.90
13974;BME280;7060;43.770;4.008;2023-03-23T09:50:58;101185.31;;;13.18;74.99
13974;BME280;7060;43.770;4.008;2023-03-23T09:53:31;101186.47;;;13.15;75.05
13974;BME280;7060;43.770;4.008;2023-03-23T09:56:01;101181.94;;;13.16;75.28
13974;BME280;7060;43.770;4.008;2023-03-23T09:58:34;101172.75;;;13.18;75.29
13974;BME280;7060;43.770;4.008;2023-03-23T10:01:08;101130.84;;;12.90;75.90
13974;BME280;7060;43.770;4.008;2023-03-23T10:03:39;101169.56;;;13.23;75.92
13974;BME280;7060;43.770;4.008;2023-03-23T10:06:10;101162.22;;;13.25;76.16
13974;BME280;7060;43.770;4.008;2023-03-23T10:08:43;101159.22;;;13.28;76.32
13974;BME280;7060;43.770;4.008;2023-03-23T10:11:16;101164.16;;;13.33;76.05
13974;BME280;7060;43.770;4.008;2023-03-23T10:14:02;101125.63;;;13.06;75.40
13974;BME280;7060;43.770;4.008;2023-03-23T10:16:34;101177.69;;;13.41;75.27
13974;BME280;7060;43.770;4.008;2023-03-23T10:19:10;101171.06;;;13.35;75.39
13974;BME280;7060;43.770;4.008;2023-03-23T10:21:44;101181.63;;;13.46;75.42
13974;BME280;7060;43.770;4.008;2023-03-23T10:24:15;101184.81;;;13.50;75.17
13974;BME280;7060;43.770;4.008;2023-03-23T10:26:50;101175.84;;;13.41;75.77
13974;BME280;7060;43.770;4.008;2023-03-23T10:29:26;101142.97;;;13.30;75.40
13974;BME280;7060;43.770;4.008;2023-03-23T10:31:58;101176.59;;;13.51;75.22
13974;BME280;7060;43.770;4.008;2023-03-23T10:34:31;101143.81;;;13.30;75.04
13974;BME280;7060;43.770;4.008;2023-03-23T10:37:03;101137.97;;;13.35;74.58
13974;BME280;7060;43.770;4.008;2023-03-23T10:39:41;101175.16;;;13.57;74.45
13974;BME280;7060;43.770;4.008;2023-03-23T10:42:22;101179.66;;;13.56;73.91
13974;BME280;7060;43.770;4.008;2023-03-23T10:44:52;101180.50;;;13.57;74.59
13974;BME280;7060;43.770;4.008;2023-03-23T10:47:20;101182.59;;;13.63;74.48
13974;BME280;7060;43.770;4.008;2023-03-23T10:49:50;101182.13;;;13.68;74.12
13974;BME280;7060;43.770;4.008;2023-03-23T10:52:28;101172.75;;;13.72;74.23
13974;BME280;7060;43.770;4.008;2023-03-23T10:55:03;101181.53;;;13.74;74.11
13974;BME280;7060;43.770;4.008;2023-03-23T10:57:33;101173.47;;;13.74;73.97
13974;BME280;7060;43.770;4.008;2023-03-23T11:00:06;101166.41;;;13.73;74.09
13974;BME280;7060;43.770;4.008;2023-03-23T11:02:40;101168.38;;;13.71;73.87
13974;BME280;7060;43.770;4.008;2023-03-23T11:05:17;101173.47;;;13.74;74.23
13974;BME280;7060;43.770;4.008;2023-03-23T11:07:50;101171.28;;;13.77;74.04
13974;BME280;7060;43.770;4.008;2023-03-23T11:10:22;101177.72;;;13.84;74.12
13974;BME280;7060;43.770;4.008;2023-03-23T11:12:52;101168.88;;;13.92;73.81
13974;BME280;7060;43.770;4.008;2023-03-23T11:15:28;101165.56;;;13.98;73.65
13974;BME280;7060;43.770;4.008;2023-03-23T11:17:58;101168.25;;;13.98;73.28
13974;BME280;7060;43.770;4.008;2023-03-23T11:20:27;101170.78;;;14.00;72.69
13974;BME280;7060;43.770;4.008;2023-03-23T11:22:56;101161.56;;;14.02;72.58
13974;BME280;7060;43.770;4.008;2023-03-23T11:25:24;101163.06;;;14.05;72.77
13974;BME280;7060;43.770;4.008;2023-03-23T11:27:52;101161.44;;;14.12;73.12
13974;BME280;7060;43.770;4.008;2023-03-23T11:30:27;101108.59;;;13.95;72.97
13974;BME280;7060;43.770;4.008;2023-03-23T11:32:59;101144.22;;;14.22;72.67
13974;BME280;7060;43.770;4.008;2023-03-23T11:35:29;101144.91;;;14.33;72.88
13974;BME280;7060;43.770;4.008;2023-03-23T11:37:58;101145.88;;;14.49;72.28
13974;BME280;7060;43.770;4.008;2023-03-23T11:40:27;101149.13;;;14.61;72.02
13974;BME280;7060;43.770;4.008;2023-03-23T11:43:00;101152.03;;;14.68;71.15
13974;BME280;7060;43.770;4.008;2023-03-23T11:45:34;101148.53;;;14.75;70.58
13974;BME280;7060;43.770;4.008;2023-03-23T11:48:15;101138.97;;;14.81;70.40
13974;BME280;7060;43.770;4.008;2023-03-23T11:50:50;101137.63;;;14.85;70.63
13974;BME280;7060;43.770;4.008;2023-03-23T11:53:46;101138.13;;;14.88;70.35
13974;BME280;7060;43.770;4.008;2023-03-23T11:56:24;101145.88;;;14.91;69.97
13974;BME280;7060;43.770;4.008;2023-03-23T11:58:53;101096.88;;;14.72;70.14
13974;BME280;7060;43.770;4.008;2023-03-23T12:01:37;101134.16;;;15.09;69.90
13974;BME280;7060;43.770;4.008;2023-03-23T12:07:25;101132.13;;;15.19;69.14
13974;BME280;7060;43.770;4.008;2023-03-23T12:10:06;101136.00;;;15.24;68.80
13974;BME280;7060;43.770;4.008;2023-03-23T12:12:40;101006.81;;;14.50;68.43
13974;BME280;7060;43.770;4.008;2023-03-23T12:15:18;101121.38;;;15.27;68.62
13974;BME280;7060;43.770;4.008;2023-03-23T12:17:56;101106.91;;;15.28;68.36
13974;BME280;7060;43.770;4.008;2023-03-23T12:20:32;101109.44;;;15.30;68.64
13974;BME280;7060;43.770;4.008;2023-03-23T12:23:08;101115.81;;;15.29;68.72
13974;BME280;7060;43.770;4.008;2023-03-23T12:26:07;101109.25;;;15.31;68.55
13974;BME280;7060;43.770;4.008;2023-03-23T12:31:30;101107.91;;;15.43;68.98
13974;BME280;7060;43.770;4.008;2023-03-23T12:34:06;101106.38;;;15.49;68.66
13974;BME280;7060;43.770;4.008;2023-03-23T12:36:52;101102.84;;;15.56;68.25
13974;BME280;7060;43.770;4.008;2023-03-23T12:39:45;101094.44;;;15.51;67.31
13974;BME280;7060;43.770;4.008;2023-03-23T12:42:21;101100.50;;;15.45;67.60
13974;BME280;7060;43.770;4.008;2023-03-23T12:44:54;101089.88;;;15.44;67.32
13974;BME280;7060;43.770;4.008;2023-03-23T12:47:34;101094.25;;;15.45;67.34
13974;BME280;7060;43.770;4.008;2023-03-23T12:50:13;101092.25;;;15.47;67.24
13974;BME280;7060;43.770;4.008;2023-03-23T12:52:50;101088.72;;;15.54;67.91
13974;BME280;7060;43.770;4.008;2023-03-23T12:55:22;101071.88;;;15.52;67.34
13974;BME280;7060;43.770;4.008;2023-03-23T12:57:56;101067.84;;;15.65;67.32
13974;BME280;7060;43.770;4.008;2023-03-23T13:00:29;101067.53;;;15.68;67.07
13974;BME280;7060;43.770;4.008;2023-03-23T13:03:02;101062.28;;;15.66;67.08
13974;BME280;7060;43.770;4.008;2023-03-23T13:05:40;101047.78;;;15.51;66.45
13974;BME280;7060;43.770;4.008;2023-03-23T13:08:14;101063.09;;;15.58;66.51
13974;BME280;7060;43.770;4.008;2023-03-23T13:10:45;101068.84;;;15.55;66.33
13974;BME280;7060;43.770;4.008;2023-03-23T13:13:18;101068.00;;;15.55;66.19
13974;BME280;7060;43.770;4.008;2023-03-23T13:15:56;101078.44;;;15.58;65.71
13974;BME280;7060;43.770;4.008;2023-03-23T13:18:34;101077.59;;;15.57;65.41
13974;BME280;7060;43.770;4.008;2023-03-23T13:21:13;101065.16;;;15.65;65.14
13974;BME280;7060;43.770;4.008;2023-03-23T13:23:44;101058.06;;;15.72;64.68
13974;BME280;7060;43.770;4.008;2023-03-23T13:26:13;101053.66;;;15.79;64.68
13974;BME280;7060;43.770;4.008;2023-03-23T13:28:56;101045.22;;;15.82;64.76
13974;BME280;7060;43.770;4.008;2023-03-23T13:31:26;101038.81;;;15.83;65.06
13974;BME280;7060;43.770;4.008;2023-03-23T13:34:04;101026.72;;;15.71;64.68
13974;BME280;7060;43.770;4.008;2023-03-23T13:36:37;101054.66;;;15.86;64.06
13974;BME280;7060;43.770;4.008;2023-03-23T13:39:16;101057.69;;;15.91;64.25
13974;BME280;7060;43.770;4.008;2023-03-23T13:41:49;101061.06;;;15.93;63.79
13974;BME280;7060;43.770;4.008;2023-03-23T13:44:27;101055.66;;;15.93;63.77
13974;BME280;7060;43.770;4.008;2023-03-23T13:46:56;101047.06;;;15.89;63.44
13974;BME280;7060;43.770;4.008;2023-03-23T13:49:25;101044.72;;;15.86;63.26